Norman, OK

1:12 AM CDT on May 30, 2015 (GMT -0500)
Wiley Post | Change Station
CLOSE
Current Station
Airport
Location: Oklahoma City Wiley Post,
Elevation: 1299 ft
Nearby Weather Stations
Active Advisory: Flash Flood Watch

Elev 1299 ft 35.53 °N, 97.65 °W | Updated 19 minutes ago

Clear
Clear
65 °F
Feels Like 65 °F
N
0
Wind Variable Wind from North

Today
High -- | Low -- °F
--% Chance of Precip.
Yesterday
High -- | Low -- °F
Precip. -- in
6:17 AM 8:37 PM
Waxing Gibbous, 88% visible
Pressure 29.99 in
Visibility 8.0 miles
Clouds Clear
Dew Point 63 °F
Humidity 93%
Rainfall 0.00 in
Snow Depth Not available.
UV 0 out of 12
Pollen 3.40 out of 12
Ozone Good
PM10 Good
Flu Activity Sporadic
METAR KPWA 300553Z AUTO 00000KT 8SM CLR 18/17 A3002 RMK AO2 SLP156 T01830172 10261 20183 402720183 51015

More Conditions Fewer Conditions

Pressure 29.99 in
Visibility 8.0 miles
Clouds Clear
Dew Point 63 °F
Humidity 93%
Rainfall 0.00 in
Snow Depth Not available.
UV 0 out of 12
Pollen 3.40 out of 12
Ozone Good
PM10 Good
Flu Activity Sporadic
METAR KPWA 300553Z AUTO 00000KT 8SM CLR 18/17 A3002 RMK AO2 SLP156 T01830172 10261 20183 402720183 51015

More Conditions Fewer Conditions

10-Day Weather Forecast

Almanac

Astronomy

May. 30, 2015 Rise Set
Actual Time 6:17 AM CDT 8:37 PM CDT
Civil Twilight 5:48 AM CDT 9:06 PM CDT
Nautical Twilight 5:12 AM CDT 9:42 PM CDT
Astronomical Twilight 4:33 AM CDT 10:22 PM CDT
Moon 5:52 PM CDT 4:25 AM CDT
Length of Visible Light 15h 18m
Length of Day
14h 20m
Tomorrow will be 1m 0s longer.
Waxing Gibbous, 88% of the Moon is Illuminated
Today
Waxing Gibbous
Jun 2
Full
Jun 9
Last Quarter
Jun 16
New
Jun 24
First Quarter

Today's Extremes

State Highs State Lows

Community

WunderPhotos

Upload Photos

1,825,472 photos uploaded!

Nearby

Air Quality

  Air Quality AQ Index Pollutant
Yesterday Good
OZONE
Yesterday Good
PM10
Current Good
OZONE
Current Good
PM10
Friday Good
OZONE
Friday Good
PM2.5
Saturday Good
OZONE
Saturday Good
PM2.5
Sunday Good
OZONE
Sunday Good
PM2.5
Monday Good
OZONE
Monday Good
PM2.5
Tuesday Good
OZONE
Tuesday Good
PM2.5
Wednesday Good
OZONE
Wednesday Good
PM2.5

Snow Depth

Station Depth Elevation
No new snow has been reported.

Earthquake Activity

City Distance Mag. Time & Date
Perkins, Oklahoma 59 miles 2.7 7:49 PM CDT
2015-05-28
Anthony, Kansas 131 miles 2.5 11:44 AM CDT
2015-05-28
Perry, Oklahoma 65 miles 3.9 7:00 AM CDT
2015-05-28
Guthrie, Oklahoma 38 miles 3.0 7:38 PM CDT
2015-05-27
Minimum magnitude displayed is 2.5.

Coastal Water Temperatures

Place Temperature
No Stations Reporting

Nearby Weather Stations